CYNR

METAR CYNR 260900Z AUTO 01010KT 9SM CLR 09/04 A2993 RMK AO2 SLP135
METAR
LOCATION
CYNR
DATE - TIME
260900Z
WIND
010 TRUE @ 10 KNOTS
VISIBILITY
9SM
RUNWAY VISUAL RANGE
NOT REPORTED
WEATHER
CLOUDINESS
CLR
TEMP / DEWPOINT
9 ºC / 4 ºC
ALTIMETER
29.93 in. Hg
RECENT WEATHER
NOT REPORTED
WIND SHEAR
NOT REPORTED
REMARKS
RMK AO2 SLP135
SEA LEVEL PRESSURE: hPa

CYNR

METAR CYNR 260800Z AUTO 02007KT 9SM CLR 09/04 A2993 RMK AO2 SLP133
METAR
LOCATION
CYNR
DATE - TIME
260800Z
WIND
020 TRUE @ 7 KNOTS
VISIBILITY
9SM
RUNWAY VISUAL RANGE
NOT REPORTED
WEATHER
CLOUDINESS
CLR
TEMP / DEWPOINT
9 ºC / 4 ºC
ALTIMETER
29.93 in. Hg
RECENT WEATHER
NOT REPORTED
WIND SHEAR
NOT REPORTED
REMARKS
RMK AO2 SLP133
SEA LEVEL PRESSURE: hPa

CYNR

METAR CYNR 260700Z AUTO 02009KT 9SM CLR 10/05 A2991 RMK AO2 PRESRR SLP126
METAR
LOCATION
CYNR
DATE - TIME
260700Z
WIND
020 TRUE @ 9 KNOTS
VISIBILITY
9SM
RUNWAY VISUAL RANGE
NOT REPORTED
WEATHER
CLOUDINESS
CLR
TEMP / DEWPOINT
10 ºC / 5 ºC
ALTIMETER
29.91 in. Hg
RECENT WEATHER
NOT REPORTED
WIND SHEAR
NOT REPORTED
REMARKS
RMK AO2 PRESRR SLP126
SEA LEVEL PRESSURE: hPa

Your time UTC time
 
 
Weather data provided by AXYS Technologies Inc., www.axystechnologies.com
 
Station History